Terminal Aerodrome Forecast
Issued by NWS

Home | Current Version | Previous Version | Text Only | Print | Product List | Glossary On
Versions: 1 2 3 4 5 6 7 8 9 10 11 12 13 14 15 16 17
000
FTUS44 KBMX 270200 AAA
TAFANB
TAF AMD
KANB 270212Z 2702/2724 21004KT 5SM BR SKC
      TEMPO 2703/2706 2SM BR
     FM270600 33010KT P6SM BKN025
     FM271200 33010KT P6SM OVC015=

USA.gov is the U.S. government's official web portal to all federal, state and local government web resources and services.